Terminal Aerodrome Forecast
Issued by NWS

Home | Current Version | Previous Version | Text Only | Print | Product List | Glossary On
Versions: 1 2 3 4 5 6 7 8 9 10 11 12 13 14 15 16 17
000
FTAK31 PANC 201721
TAFADL
TAF
PADL 201721Z 2018/2118 01015G23KT P6SM SKC WS020/02050KT
     FM202300 35012G19KT P6SM SKC WS020/02047KT=

USA.gov is the U.S. government's official web portal to all federal, state and local government web resources and services.